地図

経路データ

SID SEASON NUMBER BASIN SUBBASIN NAME ISO_TIME NATURE LAT LON WMO_WIND WMO_PRES WMO_AGENCY TRACK_TYPE DIST2LAND LANDFALL IFLAG USA_AGENCY USA_ATCF_ID USA_LAT USA_LON USA_RECORD USA_STATUS USA_WIND USA_PRES USA_SSHS USA_R34_NE USA_R34_SE USA_R34_SW USA_R34_NW USA_R50_NE USA_R50_SE USA_R50_SW USA_R50_NW USA_R64_NE USA_R64_SE USA_R64_SW USA_R64_NW USA_POCI USA_ROCI USA_RMW USA_EYE TOKYO_LAT TOKYO_LON TOKYO_GRADE TOKYO_WIND TOKYO_PRES TOKYO_R50_DIR TOKYO_R50_LONG TOKYO_R50_SHORT TOKYO_R30_DIR TOKYO_R30_LONG TOKYO_R30_SHORT TOKYO_LAND CMA_LAT CMA_LON CMA_CAT CMA_WIND CMA_PRES HKO_LAT HKO_LON HKO_CAT HKO_WIND HKO_PRES NEWDELHI_LAT NEWDELHI_LON NEWDELHI_GRADE NEWDELHI_WIND NEWDELHI_PRES NEWDELHI_CI NEWDELHI_DP NEWDELHI_POCI REUNION_LAT REUNION_LON REUNION_TYPE REUNION_WIND REUNION_PRES REUNION_TNUM REUNION_CI REUNION_RMW REUNION_R34_NE REUNION_R34_SE REUNION_R34_SW REUNION_R34_NW REUNION_R50_NE REUNION_R50_SE REUNION_R50_SW REUNION_R50_NW REUNION_R64_NE REUNION_R64_SE REUNION_R64_SW REUNION_R64_NW BOM_LAT BOM_LON BOM_TYPE BOM_WIND BOM_PRES BOM_TNUM BOM_CI BOM_RMW BOM_R34_NE BOM_R34_SE BOM_R34_SW BOM_R34_NW BOM_R50_NE BOM_R50_SE BOM_R50_SW BOM_R50_NW BOM_R64_NE BOM_R64_SE BOM_R64_SW BOM_R64_NW BOM_ROCI BOM_POCI BOM_EYE BOM_POS_METHOD BOM_PRES_METHOD NADI_LAT NADI_LON NADI_CAT NADI_WIND NADI_PRES WELLINGTON_LAT WELLINGTON_LON WELLINGTON_WIND WELLINGTON_PRES DS824_LAT DS824_LON DS824_STAGE DS824_WIND DS824_PRES TD9636_LAT TD9636_LON TD9636_STAGE TD9636_WIND TD9636_PRES TD9635_LAT TD9635_LON TD9635_WIND TD9635_PRES TD9635_ROCI NEUMANN_LAT NEUMANN_LON NEUMANN_CLASS NEUMANN_WIND NEUMANN_PRES MLC_LAT MLC_LON MLC_CLASS MLC_WIND MLC_PRES USA_GUST BOM_GUST BOM_GUST_PER REUNION_GUST REUNION_GUST_PER USA_SEAHGT USA_SEARAD_NE USA_SEARAD_SE USA_SEARAD_SW USA_SEARAD_NW STORM_SPEED STORM_DIR
2002202N13254 2002 41 EP MM DOUGLAS 2002-07-20 12:00:00 TS 13.2000 -106.400 30 1009 hurdat_epa main 649 635 O_____________ hurdat_epa EP052002 13.2000 -106.400 TD 30 1009 -1 1011 150 60 6 319
2002202N13254 2002 41 EP MM DOUGLAS 2002-07-20 15:00:00 TS 13.4200 -106.600 main 640 624 P_____________ EP052002 13.4200 -106.600 TD 35 1005 0 25 50 50 25 1011 150 80 6 322
2002202N13254 2002 41 EP MM DOUGLAS 2002-07-20 18:00:00 TS 13.7000 -106.800 40 1002 hurdat_epa main 624 600 O_____________ hurdat_epa EP052002 13.7000 -106.800 TS 40 1002 0 50 100 100 50 1011 150 100 8 329
2002202N13254 2002 41 EP MM DOUGLAS 2002-07-20 21:00:00 TS 14.0775 -107.000 main 600 580 P_____________ EP052002 14.0775 -107.000 TS 42 1001 0 50 110 110 50 1011 150 85 9 334
2002202N13254 2002 41 EP MM DOUGLAS 2002-07-21 00:00:00 TS 14.5000 -107.200 45 1000 hurdat_epa main 580 549 O_____________ hurdat_epa EP052002 14.5000 -107.200 TS 45 1000 0 50 120 120 50 1011 150 70 9 336
2002202N13254 2002 41 EP MM DOUGLAS 2002-07-21 03:00:00 TS 14.8999 -107.370 main 554 528 P_____________ EP052002 14.8999 -107.370 TS 47 999 0 55 120 120 55 1010 165 50 9 334
2002202N13254 2002 41 EP MM DOUGLAS 2002-07-21 06:00:00 TS 15.3000 -107.600 50 998 hurdat_epa main 528 511 O_____________ hurdat_epa EP052002 15.3000 -107.600 TS 50 998 0 60 120 120 60 1010 180 30 10 326
2002202N13254 2002 41 EP MM DOUGLAS 2002-07-21 09:00:00 TS 15.7224 -107.947 main 511 507 P_____________ EP052002 15.7224 -107.947 TS 52 996 0 60 120 120 60 1010 180 30 11 316
2002202N13254 2002 41 EP MM DOUGLAS 2002-07-21 12:00:00 TS 16.1000 -108.400 55 994 hurdat_epa main 515 515 O_____________ hurdat_epa EP052002 16.1000 -108.400 TS 55 994 0 60 120 120 60 1010 180 30 12 304
2002202N13254 2002 41 EP MM DOUGLAS 2002-07-21 15:00:00 TS 16.3802 -108.950 main 537 537 P_____________ EP052002 16.3802 -108.950 TS 57 992 0 67 120 120 67 1010 180 35 12 295
2002202N13254 2002 41 EP MM DOUGLAS 2002-07-21 18:00:00 TS 16.6000 -109.500 60 990 hurdat_epa main 563 563 O_____________ hurdat_epa EP052002 16.6000 -109.500 TS 60 990 0 75 120 120 75 1010 180 40 10 296
2002202N13254 2002 41 EP MM DOUGLAS 2002-07-21 21:00:00 TS 16.8298 -109.923 main 584 584 P_____________ EP052002 16.8298 -109.923 TS 62 988 0 87 135 122 87 1010 180 32 9 298
2002202N13254 2002 41 EP MM DOUGLAS 2002-07-22 00:00:00 TS 17.0000 -110.300 65 987 hurdat_epa main 607 607 O_____________ hurdat_epa EP052002 17.0000 -110.300 HU 65 987 1 100 150 125 100 1010 180 25 8 288
2002202N13254 2002 41 EP MM DOUGLAS 2002-07-22 03:00:00 TS 17.0724 -110.693 main 636 636 P_____________ EP052002 17.0724 -110.693 HU 70 982 1 112 150 117 105 1010 180 25 8 277
2002202N13254 2002 41 EP MM DOUGLAS 2002-07-22 06:00:00 TS 17.1000 -111.100 75 977 hurdat_epa main 658 656 O_____________ hurdat_epa EP052002 17.1000 -111.100 HU 75 977 1 125 150 110 110 1010 180 25 8 276
2002202N13254 2002 41 EP MM DOUGLAS 2002-07-22 09:00:00 TS 17.1575 -111.557 main 659 659 P_____________ EP052002 17.1575 -111.557 HU 80 975 1 137 150 105 105 1010 180 25 9 277
2002202N13254 2002 41 EP MM DOUGLAS 2002-07-22 12:00:00 TS 17.2000 -112.000 85 973 hurdat_epa main 670 670 O_____________ hurdat_epa EP052002 17.2000 -112.000 HU 85 973 2 150 150 100 100 1010 180 25 8 273
2002202N13254 2002 41 EP MM DOUGLAS 2002-07-22 15:00:00 TS 17.1999 -112.365 main 684 684 P_____________ EP052002 17.1999 -112.365 HU 87 971 2 150 150 125 125 1010 180 25 7 270
2002202N13254 2002 41 EP MM DOUGLAS 2002-07-22 18:00:00 TS 17.2000 -112.700 90 970 hurdat_epa main 697 697 O_____________ hurdat_epa EP052002 17.2000 -112.700 HU 90 970 2 150 150 150 150 1010 180 25 7 274
2002202N13254 2002 41 EP MM DOUGLAS 2002-07-22 21:00:00 TS 17.2425 -113.057 main 714 704 P_____________ EP052002 17.2425 -113.057 HU 90 970 2 150 187 150 150 1009 195 20 7 279
2002202N13254 2002 41 EP MM DOUGLAS 2002-07-23 00:00:00 TS 17.3000 -113.400 90 971 hurdat_epa main 719 719 O_____________ hurdat_epa EP052002 17.3000 -113.400 HU 90 971 2 150 225 150 150 1009 210 15 6 279
2002202N13254 2002 41 EP MM DOUGLAS 2002-07-23 03:00:00 TS 17.3424 -113.700 main 735 726 P_____________ EP052002 17.3424 -113.700 HU 90 971 2 150 225 150 150 1009 210 15 6 280
2002202N13254 2002 41 EP MM DOUGLAS 2002-07-23 06:00:00 TS 17.4000 -114.000 90 972 hurdat_epa main 743 743 O_____________ hurdat_epa EP052002 17.4000 -114.000 HU 90 972 2 150 225 150 150 1009 210 15 6 281
2002202N13254 2002 41 EP MM DOUGLAS 2002-07-23 09:00:00 TS 17.4623 -114.320 main 752 752 P_____________ EP052002 17.4623 -114.320 HU 87 972 2 150 225 150 150 1009 210 15 7 287
2002202N13254 2002 41 EP MM DOUGLAS 2002-07-23 12:00:00 TS 17.6000 -114.700 85 973 hurdat_epa main 769 767 O_____________ hurdat_epa EP052002 17.6000 -114.700 HU 85 973 2 150 225 150 150 1009 210 15 9 297
2002202N13254 2002 41 EP MM DOUGLAS 2002-07-23 15:00:00 TS 17.8698 -115.155 main 778 777 P_____________ EP052002 17.8698 -115.155 HU 82 976 1 150 225 150 150 1009 210 15 11 302
2002202N13254 2002 41 EP MM DOUGLAS 2002-07-23 18:00:00 TS 18.2000 -115.700 80 979 hurdat_epa main 792 792 O_____________ hurdat_epa EP052002 18.2000 -115.700 HU 80 979 1 150 225 150 150 1009 210 15 13 300
2002202N13254 2002 41 EP MM DOUGLAS 2002-07-23 21:00:00 TS 18.4999 -116.320 main 816 816 P_____________ EP052002 18.4999 -116.320 HU 80 979 1 150 212 150 150 1009 210 27 14 296
2002202N13254 2002 41 EP MM DOUGLAS 2002-07-24 00:00:00 TS 18.8000 -117.000 80 979 hurdat_epa main 831 828 O_____________ hurdat_epa EP052002 18.8000 -117.000 HU 80 979 1 150 200 150 150 1009 210 40 14 295
2002202N13254 2002 41 EP MM DOUGLAS 2002-07-24 03:00:00 TS 19.0996 -117.678 main 851 850 P_____________ EP052002 19.0996 -117.678 HU 75 981 1 150 162 137 150 1009 210 40 15 294
2002202N13254 2002 41 EP MM DOUGLAS 2002-07-24 06:00:00 TS 19.4000 -118.400 70 984 hurdat_epa main 878 878 O_____________ hurdat_epa EP052002 19.4000 -118.400 HU 70 984 1 150 125 125 150 1009 210 40 15 293
2002202N13254 2002 41 EP MM DOUGLAS 2002-07-24 09:00:00 TS 19.7071 -119.170 main 918 918 P_____________ EP052002 19.7071 -119.170 HU 67 985 1 150 125 125 150 1009 205 40 16 292
2002202N13254 2002 41 EP MM DOUGLAS 2002-07-24 12:00:00 TS 20.0000 -120.000 65 987 hurdat_epa main 964 964 O_____________ hurdat_epa EP052002 20.0000 -120.000 HU 65 987 1 150 125 125 150 1009 200 40 17 290
2002202N13254 2002 41 EP MM DOUGLAS 2002-07-24 15:00:00 TS 20.2795 -120.870 main 1015 1015 P_____________ EP052002 20.2795 -120.870 HU 60 990 0 150 125 125 150 1009 200 40 18 286
2002202N13254 2002 41 EP MM DOUGLAS 2002-07-24 18:00:00 TS 20.5000 -121.800 55 994 hurdat_epa main 1059 1059 O_____________ hurdat_epa EP052002 20.5000 -121.800 TS 55 994 0 150 125 125 150 1009 200 40 18 281
2002202N13254 2002 41 EP MM DOUGLAS 2002-07-24 21:00:00 TS 20.6223 -122.793 main 1119 1119 P_____________ EP052002 20.6223 -122.793 TS 52 995 0 150 125 125 150 1009 200 40 19 276
2002202N13254 2002 41 EP MM DOUGLAS 2002-07-25 00:00:00 TS 20.7000 -123.800 50 997 hurdat_epa main 1185 1185 O_____________ hurdat_epa EP052002 20.7000 -123.800 TS 50 997 0 150 125 125 150 1009 200 40 18 276
2002202N13254 2002 41 EP MM DOUGLAS 2002-07-25 03:00:00 TS 20.8218 -124.757 main 1256 1256 P_____________ EP052002 20.8218 -124.757 TS 47 999 0 137 112 112 137 1009 200 40 18 276
2002202N13254 2002 41 EP MM DOUGLAS 2002-07-25 06:00:00 TS 20.9000 -125.700 45 1002 hurdat_epa main 1322 1322 O_____________ hurdat_epa EP052002 20.9000 -125.700 TS 45 1002 0 125 100 100 125 1009 200 40 18 271
2002202N13254 2002 41 EP MM DOUGLAS 2002-07-25 09:00:00 TS 20.8646 -126.658 main 1406 1406 P_____________ EP052002 20.8646 -126.658 TS 40 1003 0 125 100 100 125 1009 200 40 18 267
2002202N13254 2002 41 EP MM DOUGLAS 2002-07-25 12:00:00 TS 20.8000 -127.600 35 1005 hurdat_epa main 1490 1490 O_____________ hurdat_epa EP052002 20.8000 -127.600 TS 35 1005 0 125 100 100 125 1009 200 40 17 267
2002202N13254 2002 41 EP MM DOUGLAS 2002-07-25 15:00:00 TS 20.7768 -128.500 main 1568 1568 P_____________ EP052002 20.7768 -128.500 TS 35 1005 0 125 87 75 125 1009 187 40 17 270
2002202N13254 2002 41 EP MM DOUGLAS 2002-07-25 18:00:00 TS 20.8000 -129.400 35 1005 hurdat_epa main 1648 1648 O_____________ hurdat_epa EP052002 20.8000 -129.400 TS 35 1005 0 125 75 50 125 1009 175 40 17 274
2002202N13254 2002 41 EP MM DOUGLAS 2002-07-25 21:00:00 TS 20.8843 -130.327 main 1723 1723 P_____________ EP052002 20.8843 -130.327 TS 32 1005 -1 1009 175 40 18 276
2002202N13254 2002 41 EP MM DOUGLAS 2002-07-26 00:00:00 TS 21.0000 -131.300 30 1006 hurdat_epa main 1809 1809 O_____________ hurdat_epa EP052002 21.0000 -131.300 TD 30 1006 -1 1010 175 40 19 277
2002202N13254 2002 41 EP MM DOUGLAS 2002-07-26 03:00:00 TS 21.0999 -132.350 main 1887 1887 P_____________ EP052002 21.0999 -132.350 TD 30 1006 -1 1010 175 40 20 276
2002202N13254 2002 41 EP MM DOUGLAS 2002-07-26 06:00:00 TS 21.2000 -133.400 30 1006 hurdat_epa main 1940 1940 O_____________ hurdat_epa EP052002 21.2000 -133.400 TD 30 1006 -1 1010 175 40 19 276
2002202N13254 2002 41 EP MM DOUGLAS 2002-07-26 09:00:00 TS 21.2991 -134.358 main 1996 1996 P_____________ EP052002 21.2991 -134.358 TD 27 1007 -1 1010 175 40 18 276
2002202N13254 2002 41 EP MM DOUGLAS 2002-07-26 12:00:00 TS 21.4000 -135.300 25 1008 hurdat_epa main 2041 1948 O_____________ hurdat_epa EP052002 21.4000 -135.300 TD 25 1008 -1 1011 175 40 18 277
2002202N13254 2002 41 EP MM DOUGLAS 2002-07-26 15:00:00 TS 21.5145 -136.292 main 1938 1846 P_____________ EP052002 21.5145 -136.292 TD 25 1008 -1 19 276
2002202N13254 2002 41 EP MM DOUGLAS 2002-07-26 18:00:00 DS 21.6000 -137.300 25 1009 hurdat_epa main 1835 1743 O_____________ hurdat_epa EP052002 21.6000 -137.300 LO 25 1009 -3 19 273
2002202N13254 2002 41 EP MM DOUGLAS 2002-07-26 21:00:00 DS 21.6211 -138.303 main 1732 1640 P_____________ EP052002 21.6211 -138.303 LO 25 1009 -3 19 270
2002202N13254 2002 41 EP MM DOUGLAS 2002-07-27 00:00:00 DS 21.6000 -139.300 25 1010 hurdat_epa main 1629 O_____________ hurdat_epa EP052002 21.6000 -139.300 LO 25 1010 -3 19 269

IBTrACS Databaseについて

本データベースは、米国NOAAが公開する1842年以降の世界の熱帯低気圧のベストトラックデータアーカイブInternational Best Track Archive for Climate Stewardship (IBTrACS)を、ウェブで閲覧しやすい形式に変換したものです。

最終更新日:2021-11-26